Time;durP1;ratioP1;P1;durP2;ratioP2;P2;SDS_P1;SDS_P2;PMS_P1;PMS_P2;Temp;Humidity;BMP_temperature;BMP_pressure;BME280_temperature;BME280_humidity;BME280_pressure;Samples;Min_cycle;Max_cycle;Signal;HPM_P1;HPM_P2
2023/04/28 00:00:49;;;;;;;7.50;3.40;;;8.50;99.90;;;;;;5035653;28;20164;-76
2023/04/28 00:03:15;;;;;;;7.53;3.07;;;8.50;99.90;;;;;;5036217;28;20196;-76
2023/04/28 00:05:41;;;;;;;8.33;4.13;;;8.50;99.90;;;;;;5043118;28;20300;-77
2023/04/28 00:08:07;;;;;;;5.37;3.10;;;8.50;99.90;;;;;;5032965;28;20734;-75
2023/04/28 00:10:33;;;;;;;5.03;3.20;;;8.40;99.90;;;;;;5041964;28;20694;-75
2023/04/28 00:12:58;;;;;;;11.17;3.30;;;8.40;99.90;;;;;;5045782;28;20278;-74
2023/04/28 00:15:24;;;;;;;7.80;3.77;;;8.40;99.90;;;;;;5028834;28;20264;-75
2023/04/28 00:17:50;;;;;;;8.70;3.47;;;8.30;99.90;;;;;;5042491;28;20707;-75
2023/04/28 00:20:16;;;;;;;5.83;3.50;;;8.30;99.90;;;;;;5037166;28;20590;-75
2023/04/28 00:22:41;;;;;;;6.60;3.13;;;8.30;99.90;;;;;;5035027;28;20214;-75
2023/04/28 00:25:07;;;;;;;5.90;3.60;;;8.30;99.90;;;;;;5045516;28;20291;-74
2023/04/28 00:27:34;;;;;;;6.63;3.90;;;8.30;99.90;;;;;;5035317;28;20211;-75
2023/04/28 00:30:00;;;;;;;8.37;3.63;;;8.30;99.90;;;;;;5033490;28;20261;-74
2023/04/28 00:32:26;;;;;;;7.13;3.57;;;8.20;99.90;;;;;;5044210;28;20290;-75
2023/04/28 00:34:52;;;;;;;7.80;4.07;;;8.20;99.90;;;;;;5037195;28;20314;-76
2023/04/28 00:37:18;;;;;;;8.07;3.77;;;8.20;99.90;;;;;;5045558;28;20208;-74
2023/04/28 00:39:46;;;;;;;7.40;3.50;;;8.20;99.90;;;;;;5048298;28;20196;-75
2023/04/28 00:42:13;;;;;;;9.40;3.90;;;8.20;99.90;;;;;;5043637;28;20265;-72
2023/04/28 00:44:40;;;;;;;5.23;3.00;;;8.20;99.90;;;;;;5045349;28;20196;-71
2023/04/28 00:47:07;;;;;;;6.80;3.83;;;8.20;99.90;;;;;;5048965;28;20204;-73
2023/04/28 00:49:34;;;;;;;7.10;3.30;;;8.10;99.90;;;;;;5036632;28;20208;-72
2023/04/28 00:52:04;;;;;;;7.13;3.47;;;8.10;99.90;;;;;;5039346;28;20200;-73
2023/04/28 00:54:30;;;;;;;4.70;2.93;;;8.20;99.90;;;;;;5036190;28;20175;-73
2023/04/28 00:56:56;;;;;;;6.77;3.27;;;8.20;99.90;;;;;;5050131;28;20568;-70
2023/04/28 00:59:22;;;;;;;5.37;2.97;;;8.20;99.90;;;;;;5042902;28;20940;-71
2023/04/28 01:01:48;;;;;;;7.77;3.27;;;8.30;99.90;;;;;;5032738;28;20220;-77
2023/04/28 01:04:18;;;;;;;7.50;2.90;;;8.20;99.90;;;;;;5038811;28;20548;-75
2023/04/28 01:06:46;;;;;;;6.13;3.13;;;8.20;99.90;;;;;;5041001;28;20213;-75
2023/04/28 01:09:11;;;;;;;4.47;2.80;;;8.20;99.90;;;;;;5038422;28;20176;-73
2023/04/28 01:11:37;;;;;;;6.07;2.80;;;8.20;99.90;;;;;;5036160;28;20273;-71
2023/04/28 01:14:03;;;;;;;6.23;2.80;;;8.10;99.90;;;;;;5045143;28;20204;-73
2023/04/28 01:16:31;;;;;;;6.07;2.43;;;8.10;99.90;;;;;;5042895;28;20274;-76
2023/04/28 01:18:58;;;;;;;5.60;2.83;;;8.00;99.90;;;;;;5039147;28;20181;-74
2023/04/28 01:21:27;;;;;;;5.70;2.80;;;8.00;99.90;;;;;;5044185;28;20218;-76
2023/04/28 01:23:54;;;;;;;4.43;2.63;;;8.00;99.90;;;;;;5044828;28;20207;-76
2023/04/28 01:26:20;;;;;;;7.00;3.10;;;8.10;99.90;;;;;;5042933;28;20207;-76
2023/04/28 01:28:46;;;;;;;5.33;3.33;;;8.00;99.90;;;;;;5042549;28;20207;-78
2023/04/28 01:31:11;;;;;;;6.60;3.60;;;7.90;99.90;;;;;;5046779;28;20218;-78
2023/04/28 01:33:37;;;;;;;12.63;3.37;;;7.90;99.90;;;;;;5049373;28;20203;-78
2023/04/28 01:36:03;;;;;;;5.80;3.00;;;7.80;99.90;;;;;;5040888;28;20574;-77
2023/04/28 01:38:28;;;;;;;5.80;3.20;;;7.80;99.90;;;;;;5046164;28;20200;-78
2023/04/28 01:40:55;;;;;;;6.43;3.00;;;7.80;99.90;;;;;;5035259;28;20204;-77
2023/04/28 01:43:20;;;;;;;5.53;3.00;;;7.70;99.90;;;;;;5038727;28;20219;-76
2023/04/28 01:45:46;;;;;;;4.37;3.00;;;7.80;99.90;;;;;;5051541;28;20214;-77
2023/04/28 01:48:12;;;;;;;6.97;2.97;;;7.60;99.90;;;;;;5037684;28;20537;-75
2023/04/28 01:50:37;;;;;;;6.53;3.20;;;7.70;99.90;;;;;;5045273;28;20210;-78
2023/04/28 01:53:03;;;;;;;9.10;2.97;;;7.60;99.90;;;;;;5045846;28;20206;-77
2023/04/28 01:55:28;;;;;;;6.47;3.10;;;7.60;99.90;;;;;;5055527;28;20203;-76
2023/04/28 01:57:56;;;;;;;6.60;3.23;;;7.60;99.90;;;;;;5036562;28;20207;-78
2023/04/28 02:00:22;;;;;;;6.07;3.17;;;7.70;99.90;;;;;;5040621;28;20189;-77
2023/04/28 02:02:48;;;;;;;5.10;2.90;;;7.70;99.90;;;;;;5041689;28;20210;-78
2023/04/28 02:05:14;;;;;;;3.40;2.50;;;7.80;99.90;;;;;;5036377;28;20250;-77
2023/04/28 02:07:40;;;;;;;3.30;2.33;;;7.80;99.90;;;;;;5050217;28;20240;-77
2023/04/28 02:10:06;;;;;;;4.00;2.20;;;7.80;99.90;;;;;;5050756;28;20633;-78
2023/04/28 02:12:32;;;;;;;5.87;2.93;;;7.80;99.90;;;;;;5033916;28;20601;-79
2023/04/28 02:14:58;;;;;;;5.20;3.10;;;7.80;99.90;;;;;;5038862;28;20243;-78
2023/04/28 02:17:23;;;;;;;8.00;3.40;;;7.70;99.90;;;;;;5033699;28;20674;-79
2023/04/28 02:19:55;;;;;;;2.90;2.60;;;7.70;99.90;;;;;;5053448;28;20243;-79
2023/04/28 02:22:20;;;;;;;4.87;3.07;;;7.80;99.90;;;;;;5033590;28;20224;-78
2023/04/28 02:24:46;;;;;;;6.37;3.53;;;7.70;99.90;;;;;;5032936;28;20197;-78
2023/04/28 02:27:12;;;;;;;6.70;3.27;;;7.70;99.90;;;;;;5036223;28;20174;-77
2023/04/28 02:29:38;;;;;;;9.67;3.90;;;7.70;99.90;;;;;;5032527;28;20299;-80
2023/04/28 02:32:03;;;;;;;6.93;3.40;;;7.60;99.90;;;;;;5049750;28;20285;-79
2023/04/28 02:34:29;;;;;;;6.53;3.97;;;7.60;99.90;;;;;;5031629;28;20761;-77
2023/04/28 02:36:55;;;;;;;8.60;4.07;;;7.60;99.90;;;;;;5043074;28;20172;-78
2023/04/28 02:39:28;;;;;;;4.77;3.70;;;7.60;99.90;;;;;;5042190;28;20215;-78
2023/04/28 02:41:54;;;;;;;6.63;4.07;;;7.50;99.90;;;;;;5047030;28;20211;-78
2023/04/28 02:44:20;;;;;;;5.63;3.83;;;7.40;99.90;;;;;;5037190;28;20209;-75
2023/04/28 02:46:46;;;;;;;7.33;3.67;;;7.40;99.90;;;;;;5038199;28;20250;-76
2023/04/28 02:49:12;;;;;;;9.30;4.30;;;7.30;99.90;;;;;;5038289;28;20289;-75
2023/04/28 02:51:38;;;;;;;7.97;4.63;;;7.20;99.90;;;;;;5045385;28;20250;-76
2023/04/28 02:54:04;;;;;;;6.60;3.80;;;7.20;99.90;;;;;;5037126;28;20234;-76
2023/04/28 02:56:30;;;;;;;8.90;4.17;;;7.10;99.90;;;;;;5030703;28;20208;-75
2023/04/28 02:58:56;;;;;;;7.53;4.20;;;7.20;99.90;;;;;;5035433;28;20208;-77
2023/04/28 03:01:22;;;;;;;5.23;3.67;;;7.10;99.90;;;;;;5038848;28;20545;-77
2023/04/28 03:03:47;;;;;;;7.77;4.20;;;7.10;99.90;;;;;;5033256;28;20235;-77
2023/04/28 03:06:13;;;;;;;9.60;4.43;;;7.10;99.90;;;;;;5035393;28;20195;-76
2023/04/28 03:08:39;;;;;;;6.20;3.97;;;7.10;99.90;;;;;;5031449;28;20636;-77
2023/04/28 03:11:04;;;;;;;5.43;3.90;;;7.00;99.90;;;;;;5038018;28;20931;-77
2023/04/28 03:13:30;;;;;;;6.33;3.90;;;6.80;99.90;;;;;;5041145;28;20678;-78
2023/04/28 03:15:56;;;;;;;9.77;4.00;;;6.90;99.90;;;;;;5033295;28;20211;-77
2023/04/28 03:18:22;;;;;;;8.73;4.10;;;7.00;99.90;;;;;;5036771;28;20180;-78
2023/04/28 03:20:48;;;;;;;9.00;3.80;;;6.90;99.90;;;;;;5039905;28;20204;-77
2023/04/28 03:23:13;;;;;;;6.23;3.90;;;6.90;99.90;;;;;;5043248;28;20212;-77
2023/04/28 03:25:39;;;;;;;7.50;3.93;;;6.90;99.90;;;;;;5034012;28;20204;-77
2023/04/28 03:28:04;;;;;;;5.97;3.90;;;6.80;99.90;;;;;;5033910;28;20220;-77
2023/04/28 03:30:30;;;;;;;5.97;3.53;;;6.80;99.90;;;;;;5035787;28;20218;-76
2023/04/28 03:32:56;;;;;;;10.90;4.37;;;6.70;99.90;;;;;;5031364;28;20207;-77
2023/04/28 03:35:22;;;;;;;10.00;3.87;;;6.60;99.90;;;;;;5031223;28;20266;-78
2023/04/28 03:37:48;;;;;;;7.57;3.90;;;6.80;99.90;;;;;;5032235;28;20728;-77
2023/04/28 03:40:14;;;;;;;8.03;4.33;;;6.80;99.90;;;;;;5030394;28;20314;-77
2023/04/28 03:42:39;;;;;;;8.63;3.70;;;6.80;99.90;;;;;;5030802;28;20722;-77
2023/04/28 03:45:06;;;;;;;5.77;3.60;;;6.80;99.90;;;;;;5038337;28;20199;-77
2023/04/28 03:47:31;;;;;;;7.57;3.93;;;6.80;99.90;;;;;;5037799;28;20223;-76
2023/04/28 03:49:57;;;;;;;11.67;4.23;;;6.80;99.90;;;;;;5040454;28;20682;-77
2023/04/28 03:52:23;;;;;;;8.07;4.17;;;6.90;99.90;;;;;;5047006;28;20215;-77
2023/04/28 03:54:49;;;;;;;5.60;3.90;;;6.80;99.90;;;;;;5032855;28;20718;-77
2023/04/28 03:57:15;;;;;;;7.07;4.30;;;6.70;99.90;;;;;;5035476;28;20183;-78
2023/04/28 03:59:40;;;;;;;8.32;4.45;;;6.70;99.90;;;;;;5030495;28;20505;-77
2023/04/28 04:02:06;;;;;;;6.40;4.10;;;6.80;99.90;;;;;;5033878;28;20215;-77
2023/04/28 04:04:32;;;;;;;9.40;4.20;;;6.90;99.90;;;;;;5037507;28;20207;-76
2023/04/28 04:06:58;;;;;;;6.47;3.70;;;6.80;99.90;;;;;;5040397;28;20567;-77
2023/04/28 04:09:23;;;;;;;6.47;4.03;;;6.90;99.90;;;;;;5039930;28;20214;-77
2023/04/28 04:11:49;;;;;;;7.13;4.03;;;6.90;99.90;;;;;;5033668;28;20208;-77
2023/04/28 04:14:15;;;;;;;9.53;4.33;;;7.00;99.90;;;;;;5031799;28;20204;-77
2023/04/28 04:16:41;;;;;;;7.50;3.80;;;7.00;99.90;;;;;;5037243;28;20293;-76
2023/04/28 04:19:06;;;;;;;7.73;3.73;;;7.10;99.90;;;;;;5030150;28;20211;-77
2023/04/28 04:21:32;;;;;;;7.47;3.73;;;7.10;99.90;;;;;;5030710;28;20175;-75
2023/04/28 04:23:57;;;;;;;6.67;3.73;;;7.10;99.90;;;;;;5041235;28;20200;-77
2023/04/28 04:26:23;;;;;;;5.93;3.63;;;7.30;99.90;;;;;;5037511;28;20227;-77
2023/04/28 04:28:49;;;;;;;9.73;4.20;;;7.40;99.90;;;;;;5038319;28;20239;-77
2023/04/28 04:31:15;;;;;;;4.63;3.83;;;7.60;99.90;;;;;;5037253;28;20204;-78
2023/04/28 04:33:40;;;;;;;7.07;4.07;;;7.70;99.90;;;;;;5041108;28;20188;-78
2023/04/28 04:36:06;;;;;;;6.27;3.60;;;8.50;99.90;;;;;;5036780;28;20254;-78
2023/04/28 04:38:32;;;;;;;6.30;3.17;;;9.50;99.90;;;;;;5031413;28;20705;-79
2023/04/28 04:40:58;;;;;;;7.37;3.37;;;10.40;99.90;;;;;;5041869;28;20196;-75
2023/04/28 04:43:24;;;;;;;9.23;3.70;;;11.10;99.90;;;;;;5033069;28;20694;-76
2023/04/28 04:45:49;;;;;;;7.33;3.93;;;11.30;99.90;;;;;;5041942;28;20191;-75
2023/04/28 04:48:15;;;;;;;7.23;3.97;;;10.60;99.90;;;;;;5030844;28;20165;-76
2023/04/28 04:50:42;;;;;;;5.07;3.60;;;10.10;99.90;;;;;;5038682;28;20204;-77
2023/04/28 04:53:08;;;;;;;7.40;4.00;;;9.80;99.90;;;;;;5037875;28;20283;-77
2023/04/28 04:55:33;;;;;;;6.73;3.87;;;9.80;99.90;;;;;;5034053;28;20974;-77
2023/04/28 04:57:59;;;;;;;9.33;4.23;;;10.60;99.90;;;;;;5032899;28;20583;-78
2023/04/28 05:00:25;;;;;;;6.53;3.40;;;11.50;99.90;;;;;;5029638;28;20219;-75
2023/04/28 05:02:50;;;;;;;7.20;3.93;;;12.10;99.90;;;;;;5043928;28;20298;-77
2023/04/28 05:05:16;;;;;;;5.50;3.45;;;12.10;99.90;;;;;;5040494;28;20199;-77
2023/04/28 05:07:42;;;;;;;8.35;3.33;;;12.50;99.90;;;;;;5045172;28;20278;-77
2023/04/28 05:10:10;;;;;;;7.47;3.70;;;13.40;99.90;;;;;;5040940;28;20211;-77
2023/04/28 05:12:36;;;;;;;5.40;3.45;;;13.50;99.90;;;;;;5031879;28;20193;-76
2023/04/28 05:15:02;;;;;;;6.07;3.55;;;14.20;99.90;;;;;;5040230;28;20200;-77
2023/04/28 05:17:28;;;;;;;7.68;3.47;;;13.70;99.90;;;;;;5039851;28;20200;-77
2023/04/28 05:19:53;;;;;;;9.52;3.80;;;14.60;99.90;;;;;;5045745;28;20610;-78
2023/04/28 05:22:19;;;;;;;6.00;3.60;;;15.10;99.90;;;;;;5040713;28;20218;-78
2023/04/28 05:24:45;;;;;;;9.25;3.67;;;15.10;99.90;;;;;;5047833;28;20190;-77
2023/04/28 05:27:10;;;;;;;7.75;3.90;;;15.00;99.90;;;;;;5043981;28;20176;-78
2023/04/28 05:29:36;;;;;;;5.25;3.33;;;15.00;99.90;;;;;;5033815;28;20279;-76
2023/04/28 05:32:01;;;;;;;7.78;3.80;;;14.70;99.90;;;;;;5039699;28;20211;-78
2023/04/28 05:34:27;;;;;;;7.97;3.60;;;15.80;99.90;;;;;;5039819;28;20239;-77
2023/04/28 05:36:53;;;;;;;7.80;3.88;;;15.00;99.90;;;;;;5041979;28;20310;-77
2023/04/28 05:39:19;;;;;;;9.63;3.67;;;14.90;99.90;;;;;;5052042;28;20184;-78
2023/04/28 05:41:44;;;;;;;7.07;3.53;;;15.70;99.90;;;;;;5058816;28;20196;-77
2023/04/28 05:44:10;;;;;;;5.63;3.47;;;15.50;99.90;;;;;;5053038;28;20273;-77
2023/04/28 05:46:36;;;;;;;6.68;3.78;;;16.10;99.90;;;;;;5074347;23;20590;-74
2023/04/28 05:49:02;;;;;;;7.07;3.42;;;15.80;99.90;;;;;;5050413;28;20164;-75
2023/04/28 05:51:27;;;;;;;6.82;3.60;;;16.10;99.90;;;;;;5050138;28;20164;-74
2023/04/28 05:53:53;;;;;;;6.15;4.18;;;15.70;99.90;;;;;;5049640;28;20287;-74
2023/04/28 05:56:19;;;;;;;7.45;3.35;;;15.80;99.90;;;;;;5037462;28;20204;-74
2023/04/28 05:58:46;;;;;;;5.05;3.70;;;16.20;99.90;;;;;;5030863;28;20728;-73
2023/04/28 06:01:12;;;;;;;6.97;4.10;;;16.60;99.90;;;;;;5030205;28;20284;-74
2023/04/28 06:03:40;;;;;;;5.07;3.53;;;16.20;99.90;;;;;;5031769;28;20180;-73
2023/04/28 06:06:06;;;;;;;7.55;3.75;;;16.60;99.90;;;;;;5029501;28;20277;-73
2023/04/28 06:08:32;;;;;;;5.97;3.45;;;16.40;99.90;;;;;;5028796;28;20201;-72
2023/04/28 06:10:58;;;;;;;6.63;3.45;;;16.90;99.90;;;;;;5027709;28;20699;-73
2023/04/28 06:13:23;;;;;;;5.05;3.67;;;16.60;99.90;;;;;;5029248;28;20205;-74
2023/04/28 06:15:49;;;;;;;5.18;3.28;;;16.30;99.90;;;;;;5030777;28;20215;-74
2023/04/28 06:18:15;;;;;;;6.72;3.60;;;16.50;99.90;;;;;;5027913;28;20174;-73
2023/04/28 06:20:41;;;;;;;7.63;3.72;;;16.00;99.90;;;;;;5031184;28;20315;-74
2023/04/28 06:23:08;;;;;;;9.63;4.28;;;15.70;99.90;;;;;;5027448;28;20216;-73
2023/04/28 06:25:35;;;;;;;8.77;3.75;;;16.40;99.90;;;;;;5029179;28;20224;-74
2023/04/28 06:28:01;;;;;;;9.70;3.53;;;16.20;99.90;;;;;;5030730;28;20255;-74
2023/04/28 06:30:26;;;;;;;8.15;3.70;;;16.00;99.90;;;;;;5030202;28;20340;-73
2023/04/28 06:32:52;;;;;;;5.43;3.60;;;16.20;99.90;;;;;;5028071;28;20299;-73
2023/04/28 06:35:18;;;;;;;6.07;3.50;;;16.70;99.90;;;;;;5028254;28;20591;-73
2023/04/28 06:37:43;;;;;;;5.75;3.58;;;16.40;99.90;;;;;;5026078;28;20208;-74
2023/04/28 06:40:09;;;;;;;6.10;3.28;;;15.40;99.90;;;;;;5027733;28;20216;-74
2023/04/28 06:42:35;;;;;;;8.52;3.75;;;15.00;99.90;;;;;;5026440;28;20173;-72
2023/04/28 06:45:01;;;;;;;9.43;3.63;;;15.20;99.90;;;;;;5021186;28;20283;-72
2023/04/28 06:47:27;;;;;;;6.72;3.85;;;14.60;99.90;;;;;;5024488;28;20208;-72
2023/04/28 06:49:53;;;;;;;8.68;4.07;;;14.60;99.90;;;;;;5026811;28;20607;-73
2023/04/28 06:52:20;;;;;;;9.88;4.10;;;13.90;99.90;;;;;;5018530;28;20201;-73
2023/04/28 06:54:46;;;;;;;8.45;3.53;;;13.70;99.90;;;;;;5021597;28;20177;-73
2023/04/28 06:57:12;;;;;;;6.43;3.45;;;13.40;99.90;;;;;;5020120;28;20561;-73
2023/04/28 06:59:38;;;;;;;7.40;3.70;;;13.80;99.90;;;;;;5023143;28;20290;-73
2023/04/28 07:02:04;;;;;;;6.53;3.80;;;14.00;99.90;;;;;;5025494;28;20208;-73
2023/04/28 07:04:29;;;;;;;7.57;3.67;;;14.50;99.90;;;;;;5023210;28;20196;-73
2023/04/28 07:06:55;;;;;;;6.68;3.72;;;15.20;99.90;;;;;;5026663;28;20204;-73
2023/04/28 07:09:21;;;;;;;7.22;3.70;;;16.30;99.90;;;;;;5022726;28;20164;-73
2023/04/28 07:11:47;;;;;;;9.93;3.70;;;16.80;99.90;;;;;;5022360;28;20604;-74
2023/04/28 07:14:12;;;;;;;5.45;3.25;;;16.70;99.90;;;;;;5023361;28;20207;-74
2023/04/28 07:16:38;;;;;;;6.35;3.22;;;16.80;99.90;;;;;;5022806;28;20208;-73
2023/04/28 07:19:03;;;;;;;6.57;3.80;;;16.70;99.90;;;;;;5019288;28;20250;-74
2023/04/28 07:21:29;;;;;;;6.18;3.67;;;16.50;98.90;;;;;;5020450;28;20230;-73
2023/04/28 07:23:57;;;;;;;8.15;3.20;;;17.70;98.70;;;;;;5019802;28;20214;-74
2023/04/28 07:26:23;;;;;;;5.63;3.53;;;17.70;96.70;;;;;;5025641;28;20676;-74
2023/04/28 07:28:49;;;;;;;6.78;3.22;;;17.40;97.20;;;;;;5023779;28;20227;-75
2023/04/28 07:31:14;;;;;;;10.85;6.03;;;16.80;97.30;;;;;;5020937;28;20251;-75
2023/04/28 07:33:40;;;;;;;6.82;3.35;;;17.00;97.90;;;;;;5018280;28;20168;-74
2023/04/28 07:36:06;;;;;;;7.40;3.30;;;17.20;97.30;;;;;;5023694;28;20232;-74
2023/04/28 07:38:35;;;;;;;4.75;2.88;;;18.10;96.80;;;;;;5022087;28;20627;-74
2023/04/28 07:41:02;;;;;;;9.27;3.33;;;18.30;95.60;;;;;;5024483;28;20197;-76
2023/04/28 07:43:28;;;;;;;4.38;2.95;;;17.60;96.00;;;;;;5025321;28;20278;-73
2023/04/28 07:45:54;;;;;;;7.32;3.58;;;17.90;96.20;;;;;;5025055;28;20203;-73
2023/04/28 07:48:20;;;;;;;8.88;3.38;;;17.60;95.90;;;;;;5026279;28;20164;-73
2023/04/28 07:50:46;;;;;;;9.27;3.70;;;17.20;96.60;;;;;;5025693;28;20699;-73
2023/04/28 07:53:11;;;;;;;5.03;2.72;;;17.40;97.10;;;;;;5027071;28;20257;-74
2023/04/28 07:55:37;;;;;;;6.53;3.88;;;17.80;96.60;;;;;;5021427;28;20251;-74
2023/04/28 07:58:03;;;;;;;11.27;3.63;;;16.80;97.60;;;;;;5024416;28;20223;-74
2023/04/28 08:00:29;;;;;;;7.38;3.42;;;17.90;96.80;;;;;;5021096;28;20208;-73
2023/04/28 08:02:56;;;;;;;4.63;3.25;;;17.80;96.70;;;;;;5021335;28;20846;-74
2023/04/28 08:05:22;;;;;;;10.98;3.50;;;18.20;96.90;;;;;;5019686;28;20321;-73
2023/04/28 08:07:47;;;;;;;5.55;3.03;;;17.30;96.00;;;;;;5021900;28;20334;-74
2023/04/28 08:10:13;;;;;;;6.72;3.55;;;17.70;97.20;;;;;;5016985;28;20219;-74
2023/04/28 08:12:39;;;;;;;9.07;3.78;;;17.60;97.00;;;;;;5025305;28;20180;-73
2023/04/28 08:15:06;;;;;;;9.40;3.67;;;16.70;97.60;;;;;;5025458;28;20583;-75
2023/04/28 08:17:31;;;;;;;5.47;3.15;;;16.80;98.40;;;;;;5023655;28;20211;-76
2023/04/28 08:19:58;;;;;;;5.10;3.10;;;16.20;97.60;;;;;;5027333;28;20220;-75
2023/04/28 08:22:23;;;;;;;6.38;3.75;;;15.20;99.10;;;;;;5025595;28;20794;-76
2023/04/28 08:24:49;;;;;;;5.72;3.58;;;15.60;99.90;;;;;;5025921;28;20180;-74
2023/04/28 08:27:15;;;;;;;6.72;3.78;;;15.90;99.60;;;;;;5028721;28;20184;-75
2023/04/28 08:29:40;;;;;;;6.25;3.28;;;15.80;99.20;;;;;;5028901;28;20315;-74
2023/04/28 08:32:06;;;;;;;6.90;3.60;;;15.90;99.80;;;;;;5029098;28;20279;-75
2023/04/28 08:34:32;;;;;;;6.80;3.67;;;15.60;99.70;;;;;;5029371;28;20687;-75
2023/04/28 08:36:58;;;;;;;4.97;3.28;;;15.60;99.90;;;;;;5032910;28;20594;-74
2023/04/28 08:39:25;;;;;;;8.30;3.95;;;15.20;99.90;;;;;;5018909;28;20181;-74
2023/04/28 08:41:51;;;;;;;9.18;3.90;;;14.60;99.90;;;;;;5029026;28;20200;-74
2023/04/28 08:44:17;;;;;;;6.82;3.90;;;14.50;99.90;;;;;;5029103;28;20208;-74
2023/04/28 08:46:44;;;;;;;7.32;3.50;;;14.80;99.90;;;;;;5029115;28;20223;-75
2023/04/28 08:49:22;;;;;;;7.63;3.22;;;14.60;99.90;;;;;;5029755;28;20235;-75
2023/04/28 08:52:11;;;;;;;7.43;3.53;;;15.50;99.90;;;;;;5041704;28;20538;-75
2023/04/28 08:54:39;;;;;;;8.15;3.67;;;15.70;99.90;;;;;;5033373;28;20222;-75
2023/04/28 08:57:08;;;;;;;26.55;16.02;;;15.40;99.90;;;;;;5032817;28;20644;-75
2023/04/28 08:59:34;;;;;;;6.22;4.07;;;15.60;99.90;;;;;;5031098;28;20211;-75
2023/04/28 09:02:00;;;;;;;4.78;3.58;;;15.50;99.90;;;;;;5032834;28;20216;-75
2023/04/28 09:04:26;;;;;;;6.85;3.47;;;15.40;99.90;;;;;;5029808;28;20319;-75
2023/04/28 09:06:51;;;;;;;8.45;3.90;;;15.70;99.90;;;;;;5031330;28;20279;-75
2023/04/28 09:09:28;;;;;;;8.00;3.60;;;15.30;99.90;;;;;;5030513;28;20166;-75
2023/04/28 09:11:54;;;;;;;9.48;4.32;;;15.40;99.90;;;;;;5028092;28;20594;-75
2023/04/28 09:14:21;;;;;;;10.40;3.95;;;15.30;99.90;;;;;;5031500;28;20200;-75
2023/04/28 09:16:48;;;;;;;9.13;4.50;;;15.00;99.90;;;;;;5032832;28;20287;-75
2023/04/28 09:19:16;;;;;;;6.45;4.35;;;15.20;99.90;;;;;;5030605;28;20637;-74
2023/04/28 09:21:48;;;;;;;9.52;4.05;;;15.50;99.90;;;;;;5032146;28;20545;-74
2023/04/28 09:24:32;;;;;;;8.10;3.58;;;15.30;99.90;;;;;;5030356;28;20219;-74
2023/04/28 09:27:03;;;;;;;10.82;4.20;;;15.70;99.90;;;;;;5030886;28;20334;-74
2023/04/28 09:29:29;;;;;;;8.07;4.10;;;15.70;99.90;;;;;;5030944;28;20207;-75
2023/04/28 09:32:15;;;;;;;10.27;4.07;;;15.40;99.90;;;;;;5027995;28;20251;-76
2023/04/28 09:34:48;;;;;;;8.68;4.00;;;15.30;99.90;;;;;;5024716;28;20220;-76
2023/04/28 09:37:22;;;;;;;10.55;4.53;;;15.50;99.90;;;;;;5030462;28;20200;-76
2023/04/28 09:39:50;;;;;;;7.30;4.10;;;15.70;99.90;;;;;;5024749;28;20200;-76
2023/04/28 09:42:37;;;;;;;8.57;4.40;;;15.80;99.90;;;;;;5025842;28;20168;-75
2023/04/28 09:45:12;;;;;;;7.85;3.78;;;15.30;99.90;;;;;;5027701;28;20201;-75
2023/04/28 09:47:46;;;;;;;8.77;4.35;;;15.50;99.90;;;;;;5026847;28;20355;-76
2023/04/28 09:50:15;;;;;;;8.70;4.10;;;15.90;99.90;;;;;;5024445;28;20266;-76
2023/04/28 09:52:52;;;;;;;8.57;4.28;;;16.50;99.90;;;;;;5031972;28;20208;-74
2023/04/28 09:55:19;;;;;;;8.43;4.90;;;16.20;99.90;;;;;;5031857;28;20211;-75
2023/04/28 09:57:48;;;;;;;8.88;4.30;;;15.80;99.90;;;;;;5043145;28;20214;-75
2023/04/28 10:00:15;;;;;;;8.48;4.65;;;15.70;99.90;;;;;;5030696;28;20196;-75
2023/04/28 10:02:42;;;;;;;11.60;4.85;;;15.90;99.90;;;;;;5031857;28;20710;-76
2023/04/28 10:05:08;;;;;;;10.60;4.43;;;15.70;99.90;;;;;;5031806;28;20207;-75
2023/04/28 10:07:34;;;;;;;7.47;4.32;;;15.90;99.90;;;;;;5030481;28;20208;-75
2023/04/28 10:10:00;;;;;;;8.77;4.30;;;16.20;99.90;;;;;;5024516;28;20181;-75
2023/04/28 10:12:26;;;;;;;8.88;4.38;;;16.10;99.90;;;;;;5025499;28;20172;-76
2023/04/28 10:14:56;;;;;;;9.20;4.10;;;16.20;99.90;;;;;;5028723;28;20304;-75
2023/04/28 10:17:24;;;;;;;7.18;4.38;;;16.10;99.90;;;;;;5030642;28;20283;-75
2023/04/28 10:19:52;;;;;;;9.13;5.07;;;16.00;99.90;;;;;;5031178;28;20326;-75
2023/04/28 10:22:58;;;;;;;11.10;4.95;;;15.90;99.90;;;;;;5030214;28;20266;-75
2023/04/28 10:25:30;;;;;;;7.20;4.15;;;16.00;99.90;;;;;;5028232;28;20207;-75
2023/04/28 10:27:58;;;;;;;9.32;4.55;;;16.20;99.90;;;;;;5029153;28;20185;-75
2023/04/28 10:30:26;;;;;;;7.97;4.65;;;16.10;99.90;;;;;;5031310;28;20168;-75
2023/04/28 10:33:13;;;;;;;10.40;5.07;;;15.70;99.90;;;;;;5028805;28;20211;-75
2023/04/28 10:35:44;;;;;;;7.68;4.13;;;16.10;99.90;;;;;;5031234;28;20200;-75
2023/04/28 10:38:22;;;;;;;9.55;4.55;;;16.20;99.90;;;;;;5031044;28;20207;-76
2023/04/28 10:40:53;;;;;;;8.10;4.53;;;16.50;99.90;;;;;;5031094;28;20243;-75
2023/04/28 10:43:25;;;;;;;9.23;4.65;;;16.20;99.90;;;;;;5030158;28;20734;-75
2023/04/28 10:45:54;;;;;;;12.38;4.28;;;16.50;99.90;;;;;;5030599;28;20297;-76
2023/04/28 10:48:21;;;;;;;12.10;4.55;;;16.30;99.90;;;;;;5027393;28;20282;-75
2023/04/28 10:51:06;;;;;;;10.77;4.57;;;16.60;99.90;;;;;;5030831;28;20235;-75
2023/04/28 10:53:53;;;;;;;7.80;4.82;;;16.30;99.90;;;;;;5026814;28;20204;-75
2023/04/28 10:56:24;;;;;;;9.63;4.07;;;16.40;99.90;;;;;;5025624;28;20215;-75
2023/04/28 10:58:53;;;;;;;10.27;4.63;;;16.40;99.90;;;;;;5029874;28;20246;-75
2023/04/28 11:01:25;;;;;;;8.02;4.63;;;16.20;99.90;;;;;;5029963;28;20721;-75
2023/04/28 11:03:58;;;;;;;9.73;5.20;;;16.40;99.90;;;;;;5026381;28;20419;-75
2023/04/28 11:06:33;;;;;;;8.15;4.68;;;16.30;99.90;;;;;;5028601;28;20196;-76
2023/04/28 11:09:16;;;;;;;6.45;4.20;;;16.40;99.90;;;;;;5021985;28;21151;-75
2023/04/28 11:12:00;;;;;;;7.53;4.40;;;16.50;99.90;;;;;;5025495;28;20648;-76
2023/04/28 11:14:28;;;;;;;10.55;4.75;;;16.60;99.90;;;;;;5028474;28;20228;-76
2023/04/28 11:16:58;;;;;;;6.78;4.53;;;16.80;99.90;;;;;;5027466;28;20632;-76
2023/04/28 11:19:45;;;;;;;8.70;4.95;;;17.00;99.90;;;;;;5027415;28;20718;-76
2023/04/28 11:22:14;;;;;;;9.23;5.05;;;16.90;99.60;;;;;;5028549;28;20269;-76
2023/04/28 11:24:40;;;;;;;8.60;4.32;;;17.00;99.90;;;;;;5030457;28;20255;-76
2023/04/28 11:27:06;;;;;;;7.40;4.43;;;16.80;99.90;;;;;;5025872;28;20299;-76
2023/04/28 11:29:40;;;;;;;7.78;4.90;;;16.80;99.90;;;;;;5024653;28;20201;-76
2023/04/28 11:32:08;;;;;;;7.20;4.82;;;16.80;99.90;;;;;;5029896;28;20217;-76
2023/04/28 11:34:35;;;;;;;7.88;4.55;;;17.00;99.90;;;;;;5028718;28;20212;-76
2023/04/28 11:37:01;;;;;;;8.05;4.55;;;16.90;99.90;;;;;;5029637;28;20204;-77
2023/04/28 11:39:33;;;;;;;9.43;5.07;;;17.00;99.90;;;;;;5028363;28;20594;-76
2023/04/28 11:42:01;;;;;;;9.25;4.82;;;16.80;99.90;;;;;;5029473;28;20654;-75
2023/04/28 11:44:28;;;;;;;10.18;5.15;;;17.00;99.90;;;;;;5028479;28;20239;-75
2023/04/28 11:47:01;;;;;;;8.80;5.32;;;16.80;99.90;;;;;;5023120;28;20303;-74
2023/04/28 11:49:29;;;;;;;10.25;5.40;;;16.50;99.90;;;;;;5019157;28;20211;-74
2023/04/28 11:51:56;;;;;;;10.80;5.47;;;16.70;99.90;;;;;;5048576;23;20258;-73
2023/04/28 11:54:26;;;;;;;11.13;5.60;;;17.00;99.90;;;;;;5046846;28;20229;-73
2023/04/28 11:56:54;;;;;;;11.75;5.13;;;17.00;99.90;;;;;;5047379;28;20294;-74
2023/04/28 11:59:24;;;;;;;11.50;5.07;;;16.90;99.90;;;;;;5041907;28;20558;-74
2023/04/28 12:01:57;;;;;;;7.82;4.85;;;16.90;99.90;;;;;;5039075;28;20244;-74
2023/04/28 12:04:36;;;;;;;7.47;5.43;;;17.20;99.90;;;;;;5038922;28;20753;-74
2023/04/28 12:07:13;;;;;;;6.35;4.68;;;17.10;99.90;;;;;;5044261;28;20185;-74
2023/04/28 12:09:44;;;;;;;8.23;4.70;;;17.50;99.90;;;;;;5044143;28;20702;-73
2023/04/28 12:12:12;;;;;;;8.82;5.80;;;17.40;99.90;;;;;;5037735;28;20227;-73
2023/04/28 12:15:05;;;;;;;8.45;5.13;;;17.70;99.90;;;;;;5044205;28;20254;-73
2023/04/28 12:17:32;;;;;;;8.15;4.82;;;17.30;99.90;;;;;;5041428;28;20207;-73
2023/04/28 12:20:03;;;;;;;8.38;5.32;;;17.20;99.90;;;;;;5034670;28;20223;-73
2023/04/28 12:22:30;;;;;;;8.30;5.53;;;17.20;99.90;;;;;;5037410;28;20596;-72
2023/04/28 12:25:12;;;;;;;9.13;4.95;;;17.20;99.90;;;;;;5039367;28;20234;-75
2023/04/28 12:27:39;;;;;;;10.27;4.90;;;17.20;99.90;;;;;;5040726;28;20600;-72
2023/04/28 12:30:20;;;;;;;9.27;4.95;;;17.00;99.90;;;;;;5044696;28;20243;-73
2023/04/28 12:32:46;;;;;;;7.45;4.85;;;16.80;99.90;;;;;;5046206;28;20258;-74
2023/04/28 12:35:11;;;;;;;16.10;5.68;;;17.00;99.90;;;;;;5039418;28;20765;-74
2023/04/28 12:37:38;;;;;;;7.97;4.70;;;17.10;99.90;;;;;;5038410;28;20570;-77
2023/04/28 12:40:05;;;;;;;9.77;5.32;;;17.30;99.90;;;;;;5044674;28;20220;-79
2023/04/28 12:42:31;;;;;;;11.30;5.30;;;17.00;99.90;;;;;;5041182;28;20204;-76
2023/04/28 12:44:57;;;;;;;10.13;5.45;;;17.00;99.90;;;;;;5047948;28;20211;-78
2023/04/28 12:47:23;;;;;;;8.63;5.40;;;17.00;99.90;;;;;;5046545;28;20243;-77
2023/04/28 12:49:51;;;;;;;11.25;5.53;;;16.80;99.90;;;;;;5045311;28;20667;-77
2023/04/28 12:52:20;;;;;;;10.43;5.47;;;17.10;99.90;;;;;;5045213;28;20224;-77